sensor_id;sensor_type;location;lat;lon;timestamp;pressure;altitude;pressure_sealevel;temperature;humidity
14790;BME280;7486;51.010;10.366;2023-12-14T00:02:16;97180.81;;;5.20;82.85
14790;BME280;7486;51.010;10.366;2023-12-14T00:05:02;97179.38;;;5.17;83.09
14790;BME280;7486;51.010;10.366;2023-12-14T00:07:48;97188.28;;;5.16;83.49
14790;BME280;7486;51.010;10.366;2023-12-14T00:10:34;97189.81;;;5.11;83.20
14790;BME280;7486;51.010;10.366;2023-12-14T00:13:19;97197.69;;;5.11;83.42
14790;BME280;7486;51.010;10.366;2023-12-14T00:16:05;97201.53;;;5.08;83.26
14790;BME280;7486;51.010;10.366;2023-12-14T00:18:51;97201.34;;;5.10;83.53
14790;BME280;7486;51.010;10.366;2023-12-14T00:21:36;97199.72;;;5.09;83.43
14790;BME280;7486;51.010;10.366;2023-12-14T00:24:22;97208.38;;;5.03;83.68
14790;BME280;7486;51.010;10.366;2023-12-14T00:27:07;97213.63;;;5.03;84.05
14790;BME280;7486;51.010;10.366;2023-12-14T00:29:52;97210.78;;;5.04;84.28
14790;BME280;7486;51.010;10.366;2023-12-14T00:32:38;97208.16;;;5.04;84.25
14790;BME280;7486;51.010;10.366;2023-12-14T00:35:23;97214.63;;;5.02;84.56
14790;BME280;7486;51.010;10.366;2023-12-14T00:38:09;97224.34;;;5.08;84.07
14790;BME280;7486;51.010;10.366;2023-12-14T00:40:55;97230.00;;;5.11;84.24
14790;BME280;7486;51.010;10.366;2023-12-14T00:43:40;97227.34;;;5.05;84.20
14790;BME280;7486;51.010;10.366;2023-12-14T00:46:25;97225.09;;;4.95;84.76
14790;BME280;7486;51.010;10.366;2023-12-14T00:49:11;97234.63;;;5.03;85.10
14790;BME280;7486;51.010;10.366;2023-12-14T00:51:56;97230.53;;;4.94;85.40
14790;BME280;7486;51.010;10.366;2023-12-14T00:54:42;97247.09;;;5.01;85.99
14790;BME280;7486;51.010;10.366;2023-12-14T00:57:27;97248.28;;;4.92;84.98
14790;BME280;7486;51.010;10.366;2023-12-14T01:00:13;97219.53;;;4.77;86.12
14790;BME280;7486;51.010;10.366;2023-12-14T01:02:59;97251.75;;;4.64;87.62
14790;BME280;7486;51.010;10.366;2023-12-14T01:05:44;97226.94;;;4.67;87.17
14790;BME280;7486;51.010;10.366;2023-12-14T01:08:30;97259.00;;;4.97;86.22
14790;BME280;7486;51.010;10.366;2023-12-14T01:11:15;97254.94;;;4.94;86.10
14790;BME280;7486;51.010;10.366;2023-12-14T01:14:01;97269.34;;;5.05;86.16
14790;BME280;7486;51.010;10.366;2023-12-14T01:16:46;97272.22;;;5.10;85.67
14790;BME280;7486;51.010;10.366;2023-12-14T01:19:32;97276.75;;;4.95;85.11
14790;BME280;7486;51.010;10.366;2023-12-14T01:22:18;97282.84;;;5.02;85.71
14790;BME280;7486;51.010;10.366;2023-12-14T01:25:03;97291.16;;;5.05;85.60
14790;BME280;7486;51.010;10.366;2023-12-14T01:27:48;97299.41;;;5.02;85.31
14790;BME280;7486;51.010;10.366;2023-12-14T01:30:34;97294.38;;;5.07;85.22
14790;BME280;7486;51.010;10.366;2023-12-14T01:33:19;97296.00;;;5.08;84.90
14790;BME280;7486;51.010;10.366;2023-12-14T01:36:05;97268.84;;;4.88;84.82
14790;BME280;7486;51.010;10.366;2023-12-14T01:38:51;97257.06;;;4.78;84.24
14790;BME280;7486;51.010;10.366;2023-12-14T01:41:37;97301.66;;;5.05;84.56
14790;BME280;7486;51.010;10.366;2023-12-14T01:44:22;97308.88;;;5.03;83.63
14790;BME280;7486;51.010;10.366;2023-12-14T01:47:08;97311.72;;;5.02;83.73
14790;BME280;7486;51.010;10.366;2023-12-14T01:49:53;97182.22;;;4.13;84.16
14790;BME280;7486;51.010;10.366;2023-12-14T01:52:39;97317.75;;;4.96;83.93
14790;BME280;7486;51.010;10.366;2023-12-14T01:55:25;97329.66;;;4.98;83.49
14790;BME280;7486;51.010;10.366;2023-12-14T01:58:10;97336.63;;;4.85;83.47
14790;BME280;7486;51.010;10.366;2023-12-14T02:01:20;97332.63;;;4.89;84.53
14790;BME280;7486;51.010;10.366;2023-12-14T02:04:10;97326.47;;;4.75;83.53
14790;BME280;7486;51.010;10.366;2023-12-14T02:06:55;97351.59;;;4.91;84.25
14790;BME280;7486;51.010;10.366;2023-12-14T02:09:41;97345.97;;;4.94;84.08
14790;BME280;7486;51.010;10.366;2023-12-14T02:12:26;97344.00;;;4.96;83.94
14790;BME280;7486;51.010;10.366;2023-12-14T02:15:12;97352.84;;;4.95;83.74
14790;BME280;7486;51.010;10.366;2023-12-14T02:17:57;97357.50;;;4.93;83.99
14790;BME280;7486;51.010;10.366;2023-12-14T02:20:43;97328.41;;;4.66;84.00
14790;BME280;7486;51.010;10.366;2023-12-14T02:23:29;97365.00;;;4.75;84.00
14790;BME280;7486;51.010;10.366;2023-12-14T02:26:14;97359.94;;;4.73;84.48
14790;BME280;7486;51.010;10.366;2023-12-14T02:29:00;97363.00;;;4.77;84.77
14790;BME280;7486;51.010;10.366;2023-12-14T02:31:46;97360.00;;;4.80;84.40
14790;BME280;7486;51.010;10.366;2023-12-14T02:34:32;97370.75;;;4.85;84.66
14790;BME280;7486;51.010;10.366;2023-12-14T02:37:17;97375.00;;;4.86;84.21
14790;BME280;7486;51.010;10.366;2023-12-14T02:40:04;97370.91;;;4.83;84.71
14790;BME280;7486;51.010;10.366;2023-12-14T02:42:50;97373.75;;;4.82;85.02
14790;BME280;7486;51.010;10.366;2023-12-14T02:45:35;97381.78;;;4.80;84.54
14790;BME280;7486;51.010;10.366;2023-12-14T02:48:21;97387.47;;;4.84;84.97
14790;BME280;7486;51.010;10.366;2023-12-14T02:51:06;97392.34;;;4.87;84.82
14790;BME280;7486;51.010;10.366;2023-12-14T02:53:52;97392.16;;;4.88;84.97
14790;BME280;7486;51.010;10.366;2023-12-14T02:56:37;97396.41;;;4.89;84.39
14790;BME280;7486;51.010;10.366;2023-12-14T02:59:23;97399.22;;;4.88;84.30
14790;BME280;7486;51.010;10.366;2023-12-14T03:02:08;97402.44;;;4.90;84.03
14790;BME280;7486;51.010;10.366;2023-12-14T03:05:08;97408.72;;;4.89;84.37
14790;BME280;7486;51.010;10.366;2023-12-14T03:07:55;97412.53;;;4.86;84.25
14790;BME280;7486;51.010;10.366;2023-12-14T03:10:41;97405.03;;;4.83;83.92
14790;BME280;7486;51.010;10.366;2023-12-14T03:13:26;97421.78;;;4.82;83.90
14790;BME280;7486;51.010;10.366;2023-12-14T03:16:12;97420.59;;;4.85;84.16
14790;BME280;7486;51.010;10.366;2023-12-14T03:18:57;97418.34;;;4.82;84.19
14790;BME280;7486;51.010;10.366;2023-12-14T03:21:42;97392.56;;;4.64;84.44
14790;BME280;7486;51.010;10.366;2023-12-14T03:24:28;97424.03;;;4.85;84.21
14790;BME280;7486;51.010;10.366;2023-12-14T03:27:14;97407.38;;;4.72;84.41
14790;BME280;7486;51.010;10.366;2023-12-14T03:29:59;97437.16;;;4.85;84.64
14790;BME280;7486;51.010;10.366;2023-12-14T03:32:44;97434.31;;;4.87;84.79
14790;BME280;7486;51.010;10.366;2023-12-14T03:35:30;97446.28;;;4.89;84.72
14790;BME280;7486;51.010;10.366;2023-12-14T03:38:15;97445.91;;;4.92;84.37
14790;BME280;7486;51.010;10.366;2023-12-14T03:41:01;97443.28;;;4.92;84.78
14790;BME280;7486;51.010;10.366;2023-12-14T03:43:47;97459.88;;;4.78;84.71
14790;BME280;7486;51.010;10.366;2023-12-14T03:46:32;97460.88;;;4.77;84.72
14790;BME280;7486;51.010;10.366;2023-12-14T03:49:17;97461.69;;;4.78;85.22
14790;BME280;7486;51.010;10.366;2023-12-14T03:52:03;97470.56;;;4.77;84.88
14790;BME280;7486;51.010;10.366;2023-12-14T03:54:49;97467.94;;;4.77;84.83
14790;BME280;7486;51.010;10.366;2023-12-14T03:57:34;97474.38;;;4.74;85.45
14790;BME280;7486;51.010;10.366;2023-12-14T04:00:20;97478.44;;;4.77;85.21
14790;BME280;7486;51.010;10.366;2023-12-14T04:03:05;97479.06;;;4.79;85.21
14790;BME280;7486;51.010;10.366;2023-12-14T04:05:51;97487.31;;;4.76;85.38
14790;BME280;7486;51.010;10.366;2023-12-14T04:08:36;97486.28;;;4.77;85.26
14790;BME280;7486;51.010;10.366;2023-12-14T04:11:22;97494.53;;;4.74;85.66
14790;BME280;7486;51.010;10.366;2023-12-14T04:14:08;97488.31;;;4.75;85.58
14790;BME280;7486;51.010;10.366;2023-12-14T04:16:54;97505.91;;;4.81;85.53
14790;BME280;7486;51.010;10.366;2023-12-14T04:19:40;97476.22;;;4.59;85.64
14790;BME280;7486;51.010;10.366;2023-12-14T04:22:26;97499.19;;;4.72;85.38
14790;BME280;7486;51.010;10.366;2023-12-14T04:25:11;97510.34;;;4.80;85.60
14790;BME280;7486;51.010;10.366;2023-12-14T04:27:57;97516.03;;;4.84;85.48
14790;BME280;7486;51.010;10.366;2023-12-14T04:30:42;97521.94;;;4.86;85.26
14790;BME280;7486;51.010;10.366;2023-12-14T04:33:28;97526.16;;;4.87;85.40
14790;BME280;7486;51.010;10.366;2023-12-14T04:36:13;97523.66;;;4.79;85.33
14790;BME280;7486;51.010;10.366;2023-12-14T04:38:58;97536.50;;;4.74;86.01
14790;BME280;7486;51.010;10.366;2023-12-14T04:41:44;97520.97;;;4.72;85.78
14790;BME280;7486;51.010;10.366;2023-12-14T04:44:29;97543.91;;;4.85;85.32
14790;BME280;7486;51.010;10.366;2023-12-14T04:47:15;97547.34;;;4.85;86.05
14790;BME280;7486;51.010;10.366;2023-12-14T04:50:00;97554.81;;;4.67;85.21
14790;BME280;7486;51.010;10.366;2023-12-14T04:52:45;97546.00;;;4.75;86.30
14790;BME280;7486;51.010;10.366;2023-12-14T04:55:31;97549.63;;;4.74;85.80
14790;BME280;7486;51.010;10.366;2023-12-14T04:58:16;97553.97;;;4.81;86.09
14790;BME280;7486;51.010;10.366;2023-12-14T05:01:02;97560.03;;;4.82;85.87
14790;BME280;7486;51.010;10.366;2023-12-14T05:03:47;97570.25;;;4.77;85.90
14790;BME280;7486;51.010;10.366;2023-12-14T05:06:33;97574.22;;;4.73;86.40
14790;BME280;7486;51.010;10.366;2023-12-14T05:09:19;97561.47;;;4.69;86.57
14790;BME280;7486;51.010;10.366;2023-12-14T05:12:05;97581.63;;;4.84;85.52
14790;BME280;7486;51.010;10.366;2023-12-14T05:14:52;97545.06;;;4.46;85.61
14790;BME280;7486;51.010;10.366;2023-12-14T05:17:37;97557.44;;;4.52;86.43
14790;BME280;7486;51.010;10.366;2023-12-14T05:20:23;97573.38;;;4.65;86.27
14790;BME280;7486;51.010;10.366;2023-12-14T05:23:08;97592.47;;;4.15;87.86
14790;BME280;7486;51.010;10.366;2023-12-14T05:25:54;97603.28;;;3.98;89.03
14790;BME280;7486;51.010;10.366;2023-12-14T05:28:40;97609.88;;;3.56;92.22
14790;BME280;7486;51.010;10.366;2023-12-14T05:31:26;97614.25;;;3.64;93.05
14790;BME280;7486;51.010;10.366;2023-12-14T05:34:11;97615.38;;;3.70;93.50
14790;BME280;7486;51.010;10.366;2023-12-14T05:36:57;97614.50;;;3.92;92.90
14790;BME280;7486;51.010;10.366;2023-12-14T05:39:42;97618.31;;;3.66;91.95
14790;BME280;7486;51.010;10.366;2023-12-14T05:42:28;97559.38;;;3.33;93.53
14790;BME280;7486;51.010;10.366;2023-12-14T05:45:13;97626.19;;;4.04;91.42
14790;BME280;7486;51.010;10.366;2023-12-14T05:47:59;97633.59;;;4.15;90.67
14790;BME280;7486;51.010;10.366;2023-12-14T05:50:44;97607.69;;;3.68;90.01
14790;BME280;7486;51.010;10.366;2023-12-14T05:53:29;97651.84;;;4.08;90.52
14790;BME280;7486;51.010;10.366;2023-12-14T05:56:15;97649.75;;;4.18;89.65
14790;BME280;7486;51.010;10.366;2023-12-14T05:59:00;97662.88;;;4.18;88.85
14790;BME280;7486;51.010;10.366;2023-12-14T06:01:46;97668.13;;;4.18;89.47
14790;BME280;7486;51.010;10.366;2023-12-14T06:04:32;97677.09;;;4.24;88.91
14790;BME280;7486;51.010;10.366;2023-12-14T06:07:17;97680.97;;;4.13;88.83
14790;BME280;7486;51.010;10.366;2023-12-14T06:10:03;97686.56;;;4.25;88.48
14790;BME280;7486;51.010;10.366;2023-12-14T06:12:48;97687.13;;;4.35;88.59
14790;BME280;7486;51.010;10.366;2023-12-14T06:15:34;97687.31;;;4.34;88.04
14790;BME280;7486;51.010;10.366;2023-12-14T06:18:20;97685.44;;;4.05;88.93
14790;BME280;7486;51.010;10.366;2023-12-14T06:21:05;97695.50;;;3.79;89.82
14790;BME280;7486;51.010;10.366;2023-12-14T06:23:51;97702.59;;;3.47;92.80
14790;BME280;7486;51.010;10.366;2023-12-14T06:26:43;97708.06;;;3.38;92.44
14790;BME280;7486;51.010;10.366;2023-12-14T06:29:29;97705.66;;;3.20;94.30
14790;BME280;7486;51.010;10.366;2023-12-14T06:32:14;97717.78;;;3.21;93.52
14790;BME280;7486;51.010;10.366;2023-12-14T06:35:00;97730.63;;;3.00;95.15
14790;BME280;7486;51.010;10.366;2023-12-14T06:37:45;97729.34;;;2.88;96.57
14790;BME280;7486;51.010;10.366;2023-12-14T06:40:31;97746.31;;;3.00;96.56
14790;BME280;7486;51.010;10.366;2023-12-14T06:43:16;97716.25;;;2.96;95.67
14790;BME280;7486;51.010;10.366;2023-12-14T06:46:01;97743.72;;;2.92;96.09
14790;BME280;7486;51.010;10.366;2023-12-14T06:48:48;97751.47;;;3.16;96.67
14790;BME280;7486;51.010;10.366;2023-12-14T06:51:34;97762.16;;;2.98;95.93
14790;BME280;7486;51.010;10.366;2023-12-14T06:54:20;97751.78;;;2.74;96.55
14790;BME280;7486;51.010;10.366;2023-12-14T06:57:06;97776.41;;;2.88;97.23
14790;BME280;7486;51.010;10.366;2023-12-14T06:59:51;97784.13;;;3.36;95.83
14790;BME280;7486;51.010;10.366;2023-12-14T07:02:36;97773.78;;;3.04;94.12
14790;BME280;7486;51.010;10.366;2023-12-14T07:05:22;97788.56;;;2.81;94.41
14790;BME280;7486;51.010;10.366;2023-12-14T07:08:08;97800.69;;;2.74;96.64
14790;BME280;7486;51.010;10.366;2023-12-14T07:10:54;97794.16;;;3.16;96.22
14790;BME280;7486;51.010;10.366;2023-12-14T07:13:39;97755.44;;;2.49;95.03
14790;BME280;7486;51.010;10.366;2023-12-14T07:16:26;97781.78;;;2.39;97.13
14790;BME280;7486;51.010;10.366;2023-12-14T07:19:11;97803.88;;;3.00;96.89
14790;BME280;7486;51.010;10.366;2023-12-14T07:21:57;97820.47;;;3.23;94.26
14790;BME280;7486;51.010;10.366;2023-12-14T07:24:42;97814.63;;;3.05;94.27
14790;BME280;7486;51.010;10.366;2023-12-14T07:27:37;97823.75;;;3.25;93.71
14790;BME280;7486;51.010;10.366;2023-12-14T07:30:22;97827.69;;;3.13;93.66
14790;BME280;7486;51.010;10.366;2023-12-14T07:33:08;97828.94;;;3.41;92.29
14790;BME280;7486;51.010;10.366;2023-12-14T07:35:53;97838.94;;;3.38;91.33
14790;BME280;7486;51.010;10.366;2023-12-14T07:38:39;97841.31;;;3.00;92.33
14790;BME280;7486;51.010;10.366;2023-12-14T07:41:25;97847.53;;;2.91;93.02
14790;BME280;7486;51.010;10.366;2023-12-14T07:44:10;97826.44;;;3.01;93.31
14790;BME280;7486;51.010;10.366;2023-12-14T07:46:59;97849.84;;;3.49;91.96
14790;BME280;7486;51.010;10.366;2023-12-14T07:49:45;97853.53;;;3.63;90.21
14790;BME280;7486;51.010;10.366;2023-12-14T07:52:30;97864.13;;;3.78;89.54
14790;BME280;7486;51.010;10.366;2023-12-14T07:55:16;97869.19;;;3.79;89.10
14790;BME280;7486;51.010;10.366;2023-12-14T07:58:02;97868.16;;;3.88;88.19
14790;BME280;7486;51.010;10.366;2023-12-14T08:00:50;97872.63;;;3.80;86.76
14790;BME280;7486;51.010;10.366;2023-12-14T08:03:36;97891.78;;;3.41;87.16
14790;BME280;7486;51.010;10.366;2023-12-14T08:06:21;97889.03;;;3.10;89.67
14790;BME280;7486;51.010;10.366;2023-12-14T08:09:07;97899.31;;;3.36;89.57
14790;BME280;7486;51.010;10.366;2023-12-14T08:11:53;97900.34;;;3.03;88.88
14790;BME280;7486;51.010;10.366;2023-12-14T08:14:38;97888.56;;;2.99;88.95
14790;BME280;7486;51.010;10.366;2023-12-14T08:17:24;97910.78;;;3.11;89.14
14790;BME280;7486;51.010;10.366;2023-12-14T08:20:09;97910.81;;;2.87;88.61
14790;BME280;7486;51.010;10.366;2023-12-14T08:22:55;97913.09;;;2.82;88.83
14790;BME280;7486;51.010;10.366;2023-12-14T08:25:41;97917.22;;;2.60;89.96
14790;BME280;7486;51.010;10.366;2023-12-14T08:28:27;97927.47;;;2.37;90.60
14790;BME280;7486;51.010;10.366;2023-12-14T08:31:12;97934.66;;;2.43;91.73
14790;BME280;7486;51.010;10.366;2023-12-14T08:33:57;97948.03;;;2.40;91.11
14790;BME280;7486;51.010;10.366;2023-12-14T08:36:43;97955.91;;;2.64;91.03
14790;BME280;7486;51.010;10.366;2023-12-14T08:39:28;97968.03;;;2.82;89.42
14790;BME280;7486;51.010;10.366;2023-12-14T08:42:14;97974.84;;;2.50;90.24
14790;BME280;7486;51.010;10.366;2023-12-14T08:44:59;97969.09;;;2.31;91.26
14790;BME280;7486;51.010;10.366;2023-12-14T08:47:45;97977.72;;;2.23;92.18
14790;BME280;7486;51.010;10.366;2023-12-14T08:50:31;97979.56;;;2.31;91.35
14790;BME280;7486;51.010;10.366;2023-12-14T08:53:16;97978.72;;;2.30;91.82
14790;BME280;7486;51.010;10.366;2023-12-14T08:56:01;97963.84;;;2.14;92.51
14790;BME280;7486;51.010;10.366;2023-12-14T08:58:47;98003.28;;;2.53;92.00
14790;BME280;7486;51.010;10.366;2023-12-14T09:01:32;98013.75;;;2.53;91.45
14790;BME280;7486;51.010;10.366;2023-12-14T09:04:18;98010.81;;;2.64;90.49
14790;BME280;7486;51.010;10.366;2023-12-14T09:07:03;98018.06;;;2.87;90.75
14790;BME280;7486;51.010;10.366;2023-12-14T09:09:49;98018.53;;;2.82;89.86
14790;BME280;7486;51.010;10.366;2023-12-14T09:12:35;98023.47;;;2.77;90.13
14790;BME280;7486;51.010;10.366;2023-12-14T09:15:21;98031.31;;;2.77;90.13
14790;BME280;7486;51.010;10.366;2023-12-14T09:18:08;98014.78;;;2.85;89.10
14790;BME280;7486;51.010;10.366;2023-12-14T09:21:09;98045.34;;;2.84;88.54
14790;BME280;7486;51.010;10.366;2023-12-14T09:24:07;98049.13;;;2.90;88.72
14790;BME280;7486;51.010;10.366;2023-12-14T09:26:57;98052.22;;;2.85;88.05
14790;BME280;7486;51.010;10.366;2023-12-14T09:29:43;98046.34;;;2.33;89.88
14790;BME280;7486;51.010;10.366;2023-12-14T09:36:28;98085.16;;;2.54;89.58
14790;BME280;7486;51.010;10.366;2023-12-14T09:39:14;98086.81;;;2.21;90.42
14790;BME280;7486;51.010;10.366;2023-12-14T09:42:03;98095.69;;;2.02;91.53
14790;BME280;7486;51.010;10.366;2023-12-14T09:44:50;98097.22;;;2.13;90.87
14790;BME280;7486;51.010;10.366;2023-12-14T09:47:37;98088.50;;;2.30;90.64
14790;BME280;7486;51.010;10.366;2023-12-14T09:50:24;98087.72;;;2.04;90.07
14790;BME280;7486;51.010;10.366;2023-12-14T09:53:10;98100.31;;;1.83;91.72
14790;BME280;7486;51.010;10.366;2023-12-14T09:55:55;98098.84;;;1.80;92.40
14790;BME280;7486;51.010;10.366;2023-12-14T09:58:41;98081.97;;;1.49;93.72
14790;BME280;7486;51.010;10.366;2023-12-14T10:01:27;98106.13;;;1.51;93.71
14790;BME280;7486;51.010;10.366;2023-12-14T10:04:19;98117.91;;;1.55;95.19
14790;BME280;7486;51.010;10.366;2023-12-14T10:07:05;98113.72;;;1.62;94.05
14790;BME280;7486;51.010;10.366;2023-12-14T10:09:51;98120.38;;;1.56;93.88
14790;BME280;7486;51.010;10.366;2023-12-14T10:12:53;98118.59;;;1.83;93.58
14790;BME280;7486;51.010;10.366;2023-12-14T10:15:43;98123.81;;;1.83;91.90
14790;BME280;7486;51.010;10.366;2023-12-14T10:18:31;98134.09;;;1.58;92.79
14790;BME280;7486;51.010;10.366;2023-12-14T10:21:19;98135.44;;;1.62;92.66
14790;BME280;7486;51.010;10.366;2023-12-14T10:24:05;98136.91;;;1.65;93.07
14790;BME280;7486;51.010;10.366;2023-12-14T10:26:51;98149.75;;;1.58;93.86
14790;BME280;7486;51.010;10.366;2023-12-14T10:29:37;98158.59;;;1.83;92.21
14790;BME280;7486;51.010;10.366;2023-12-14T10:32:23;98130.75;;;1.48;92.02
14790;BME280;7486;51.010;10.366;2023-12-14T10:35:09;98156.00;;;1.30;92.03
14790;BME280;7486;51.010;10.366;2023-12-14T10:37:55;98165.34;;;1.15;92.91
14790;BME280;7486;51.010;10.366;2023-12-14T10:40:44;98158.69;;;1.03;91.33
14790;BME280;7486;51.010;10.366;2023-12-14T10:43:30;98123.72;;;0.96;92.38
14790;BME280;7486;51.010;10.366;2023-12-14T10:46:34;98166.59;;;1.11;91.39
14790;BME280;7486;51.010;10.366;2023-12-14T10:49:20;98183.59;;;1.15;91.33
14790;BME280;7486;51.010;10.366;2023-12-14T10:52:05;98163.03;;;1.12;91.72
14790;BME280;7486;51.010;10.366;2023-12-14T10:54:59;98192.50;;;0.95;90.51
14790;BME280;7486;51.010;10.366;2023-12-14T10:57:45;98202.78;;;0.59;92.19
14790;BME280;7486;51.010;10.366;2023-12-14T11:00:33;98206.13;;;0.79;92.17
14790;BME280;7486;51.010;10.366;2023-12-14T11:03:18;98200.94;;;0.89;91.19
14790;BME280;7486;51.010;10.366;2023-12-14T11:06:36;98207.44;;;1.02;92.31
14790;BME280;7486;51.010;10.366;2023-12-14T11:09:22;98198.56;;;0.95;90.80
14790;BME280;7486;51.010;10.366;2023-12-14T11:12:08;98218.88;;;0.92;90.62
14790;BME280;7486;51.010;10.366;2023-12-14T11:14:54;98214.34;;;0.84;90.61
14790;BME280;7486;51.010;10.366;2023-12-14T11:17:39;98210.59;;;0.96;90.52
14790;BME280;7486;51.010;10.366;2023-12-14T11:20:27;98213.34;;;0.68;91.38
14790;BME280;7486;51.010;10.366;2023-12-14T11:23:13;98215.06;;;0.77;91.00
14790;BME280;7486;51.010;10.366;2023-12-14T11:26:03;98222.94;;;1.04;90.47
14790;BME280;7486;51.010;10.366;2023-12-14T11:28:50;98225.34;;;0.88;90.10
14790;BME280;7486;51.010;10.366;2023-12-14T11:31:35;98177.53;;;0.33;90.69
14790;BME280;7486;51.010;10.366;2023-12-14T11:34:24;98231.59;;;0.68;91.08
14790;BME280;7486;51.010;10.366;2023-12-14T11:37:10;98239.28;;;0.59;91.70
14790;BME280;7486;51.010;10.366;2023-12-14T11:39:55;98220.00;;;0.80;90.95
14790;BME280;7486;51.010;10.366;2023-12-14T11:42:41;98195.72;;;0.79;90.77
14790;BME280;7486;51.010;10.366;2023-12-14T11:45:26;98246.41;;;1.04;88.36
14790;BME280;7486;51.010;10.366;2023-12-14T11:48:13;98211.91;;;0.46;90.58
14790;BME280;7486;51.010;10.366;2023-12-14T11:50:58;98247.59;;;0.73;90.77
14790;BME280;7486;51.010;10.366;2023-12-14T11:53:47;98252.56;;;0.66;90.82
14790;BME280;7486;51.010;10.366;2023-12-14T11:56:34;98262.09;;;0.38;90.94
14790;BME280;7486;51.010;10.366;2023-12-14T11:59:20;98274.41;;;0.55;92.09
14790;BME280;7486;51.010;10.366;2023-12-14T12:02:06;98270.25;;;0.72;91.25
14790;BME280;7486;51.010;10.366;2023-12-14T12:04:52;98252.16;;;0.71;91.51
14790;BME280;7486;51.010;10.366;2023-12-14T12:07:37;98276.22;;;0.82;90.13
14790;BME280;7486;51.010;10.366;2023-12-14T12:10:24;98277.00;;;0.55;91.17
14790;BME280;7486;51.010;10.366;2023-12-14T12:13:14;98277.47;;;0.41;92.04
14790;BME280;7486;51.010;10.366;2023-12-14T12:16:00;98285.44;;;0.86;91.23
14790;BME280;7486;51.010;10.366;2023-12-14T12:18:46;98258.03;;;0.73;90.01
14790;BME280;7486;51.010;10.366;2023-12-14T12:21:32;98287.03;;;0.60;92.14
14790;BME280;7486;51.010;10.366;2023-12-14T12:24:18;98283.59;;;1.06;91.40
14790;BME280;7486;51.010;10.366;2023-12-14T12:27:11;98290.53;;;0.78;90.36
14790;BME280;7486;51.010;10.366;2023-12-14T12:30:02;98280.00;;;1.07;90.66
14790;BME280;7486;51.010;10.366;2023-12-14T12:32:49;98288.72;;;1.25;89.16
14790;BME280;7486;51.010;10.366;2023-12-14T12:35:42;98286.16;;;1.43;88.26
14790;BME280;7486;51.010;10.366;2023-12-14T12:38:27;98286.38;;;1.49;88.57
14790;BME280;7486;51.010;10.366;2023-12-14T12:41:13;98293.13;;;1.70;87.17
14790;BME280;7486;51.010;10.366;2023-12-14T12:43:58;98307.47;;;1.83;86.34
14790;BME280;7486;51.010;10.366;2023-12-14T12:46:44;98299.03;;;1.44;86.21
14790;BME280;7486;51.010;10.366;2023-12-14T12:49:42;98317.00;;;1.47;87.58
14790;BME280;7486;51.010;10.366;2023-12-14T12:52:28;98317.06;;;1.83;86.45
14790;BME280;7486;51.010;10.366;2023-12-14T12:55:14;98321.03;;;1.87;85.59
14790;BME280;7486;51.010;10.366;2023-12-14T12:57:59;98322.44;;;1.63;85.62
14790;BME280;7486;51.010;10.366;2023-12-14T13:00:45;98320.03;;;1.52;86.69
14790;BME280;7486;51.010;10.366;2023-12-14T13:03:30;98323.03;;;1.57;87.08
14790;BME280;7486;51.010;10.366;2023-12-14T13:06:16;98332.94;;;1.54;85.73
14790;BME280;7486;51.010;10.366;2023-12-14T13:09:01;98308.19;;;1.31;85.74
14790;BME280;7486;51.010;10.366;2023-12-14T13:11:47;98336.75;;;1.32;86.88
14790;BME280;7486;51.010;10.366;2023-12-14T13:14:33;98350.81;;;1.49;86.82
14790;BME280;7486;51.010;10.366;2023-12-14T13:17:18;98349.94;;;1.31;87.06
14790;BME280;7486;51.010;10.366;2023-12-14T13:20:04;98355.94;;;1.41;87.43
14790;BME280;7486;51.010;10.366;2023-12-14T13:22:50;98357.13;;;1.19;87.39
14790;BME280;7486;51.010;10.366;2023-12-14T13:25:36;98356.56;;;1.25;88.96
14790;BME280;7486;51.010;10.366;2023-12-14T13:28:21;98367.06;;;1.43;87.73
14790;BME280;7486;51.010;10.366;2023-12-14T13:31:07;98365.09;;;1.18;88.91
14790;BME280;7486;51.010;10.366;2023-12-14T13:33:53;98370.44;;;1.26;89.80
14790;BME280;7486;51.010;10.366;2023-12-14T13:36:39;98364.97;;;1.46;88.80
14790;BME280;7486;51.010;10.366;2023-12-14T13:39:24;98364.09;;;1.28;89.02
14790;BME280;7486;51.010;10.366;2023-12-14T13:42:09;98376.06;;;1.21;88.94
14790;BME280;7486;51.010;10.366;2023-12-14T13:44:55;98387.88;;;1.25;88.62
14790;BME280;7486;51.010;10.366;2023-12-14T13:47:40;98392.47;;;1.41;88.01
14790;BME280;7486;51.010;10.366;2023-12-14T13:50:26;98395.28;;;1.20;88.39
14790;BME280;7486;51.010;10.366;2023-12-14T13:53:11;98415.28;;;0.63;89.93
14790;BME280;7486;51.010;10.366;2023-12-14T13:55:58;98396.75;;;0.67;90.93
14790;BME280;7486;51.010;10.366;2023-12-14T13:58:44;98403.03;;;1.12;89.21
14790;BME280;7486;51.010;10.366;2023-12-14T14:01:30;98422.25;;;1.11;88.48
14790;BME280;7486;51.010;10.366;2023-12-14T14:04:17;98410.69;;;1.13;88.00
14790;BME280;7486;51.010;10.366;2023-12-14T14:07:02;98424.56;;;1.14;87.50
14790;BME280;7486;51.010;10.366;2023-12-14T14:09:47;98441.16;;;1.13;87.19
14790;BME280;7486;51.010;10.366;2023-12-14T14:12:33;98444.44;;;1.25;87.82
14790;BME280;7486;51.010;10.366;2023-12-14T14:15:19;98442.88;;;1.41;86.68
14790;BME280;7486;51.010;10.366;2023-12-14T14:18:05;98439.75;;;1.28;85.28
14790;BME280;7486;51.010;10.366;2023-12-14T14:20:50;98453.81;;;1.18;86.33
14790;BME280;7486;51.010;10.366;2023-12-14T14:23:36;98452.31;;;1.05;86.25
14790;BME280;7486;51.010;10.366;2023-12-14T14:26:21;98472.56;;;1.31;85.64
14790;BME280;7486;51.010;10.366;2023-12-14T14:29:07;98482.88;;;1.32;85.36
14790;BME280;7486;51.010;10.366;2023-12-14T14:31:52;98479.16;;;1.35;85.19
14790;BME280;7486;51.010;10.366;2023-12-14T14:34:38;98499.09;;;1.36;84.54
14790;BME280;7486;51.010;10.366;2023-12-14T14:37:23;98503.38;;;1.18;84.40
14790;BME280;7486;51.010;10.366;2023-12-14T14:40:08;98510.88;;;1.49;84.38
14790;BME280;7486;51.010;10.366;2023-12-14T14:42:54;98510.25;;;1.65;82.88
14790;BME280;7486;51.010;10.366;2023-12-14T14:45:39;98505.66;;;1.49;81.93
14790;BME280;7486;51.010;10.366;2023-12-14T14:48:24;98519.91;;;1.55;82.54
14790;BME280;7486;51.010;10.366;2023-12-14T14:51:10;98511.88;;;1.76;81.35
14790;BME280;7486;51.010;10.366;2023-12-14T14:53:56;98514.69;;;1.55;81.63
14790;BME280;7486;51.010;10.366;2023-12-14T14:56:42;98531.75;;;1.49;81.46